createdAt,value
2022-10-11T00:00:41.131Z,1.38
2022-10-11T00:03:09.585Z,1.52
2022-10-11T00:05:37.746Z,1.30
2022-10-11T00:08:25.973Z,1.10
2022-10-11T00:10:58.591Z,1.35
2022-10-11T00:13:27.027Z,1.30
2022-10-11T00:15:57.230Z,1.45
2022-10-11T00:18:25.451Z,1.30
2022-10-11T00:21:02.138Z,1.52
2022-10-11T00:23:30.250Z,1.27
2022-10-11T00:25:59.886Z,1.38
2022-10-11T00:28:28.255Z,1.52
2022-10-11T00:30:57.996Z,1.40
2022-10-11T00:33:26.028Z,1.63
2022-10-11T00:35:54.026Z,1.23
2022-10-11T00:38:21.972Z,1.58
2022-10-11T00:40:50.059Z,1.90
2022-10-11T00:43:19.526Z,1.20
2022-10-11T00:46:25.620Z,1.23
2022-10-11T00:48:58.354Z,1.65
2022-10-11T00:51:37.257Z,1.70
2022-10-11T00:54:07.144Z,1.30
2022-10-11T00:56:38.935Z,1.63
2022-10-11T00:59:13.595Z,1.30
2022-10-11T01:01:43.102Z,1.75
2022-10-11T01:04:11.223Z,1.70
2022-10-11T01:06:39.587Z,1.55
2022-10-11T01:09:08.159Z,1.60
2022-10-11T01:11:39.038Z,1.48
2022-10-11T01:14:28.999Z,1.65
2022-10-11T01:17:04.920Z,1.50
2022-10-11T01:19:52.356Z,1.40
2022-10-11T01:22:36.822Z,1.50
2022-10-11T01:25:25.328Z,1.35
2022-10-11T01:28:08.622Z,1.70
2022-10-11T01:30:39.300Z,1.50
2022-10-11T01:33:18.347Z,1.50
2022-10-11T01:35:50.385Z,1.52
2022-10-11T01:38:22.620Z,1.55
2022-10-11T01:40:53.608Z,1.30
2022-10-11T01:43:23.881Z,1.73
2022-10-11T01:45:55.687Z,1.85
2022-10-11T01:48:23.745Z,1.30
2022-10-11T01:50:55.325Z,1.85
2022-10-11T01:53:45.244Z,1.67
2022-10-11T01:56:26.792Z,1.45
2022-10-11T01:59:07.400Z,1.50
2022-10-11T02:01:49.105Z,1.63
2022-10-11T02:04:22.188Z,1.25
2022-10-11T02:06:57.888Z,1.73
2022-10-11T02:09:34.836Z,1.27
2022-10-11T02:12:08.447Z,1.70
2022-10-11T02:14:40.544Z,1.33
2022-10-11T02:17:13.845Z,1.85
2022-10-11T02:19:46.026Z,2.08
2022-10-11T02:22:19.371Z,1.90
2022-10-11T02:24:51.602Z,1.40
2022-10-11T02:27:23.539Z,2.05
2022-10-11T02:29:54.492Z,2.05
2022-10-11T02:32:26.489Z,1.63
2022-10-11T02:34:57.152Z,1.73
2022-10-11T02:37:31.796Z,1.85
2022-10-11T02:40:07.768Z,1.83
2022-10-11T02:42:42.956Z,2.10
2022-10-11T02:45:18.018Z,1.70
2022-10-11T02:47:48.848Z,1.63
2022-10-11T02:50:17.221Z,1.65
2022-10-11T02:52:45.299Z,1.73
2022-10-11T02:55:13.496Z,1.88
2022-10-11T02:57:41.515Z,2.60
2022-10-11T03:00:10.591Z,1.92
2022-10-11T03:02:38.524Z,1.90
2022-10-11T03:05:08.421Z,1.70
2022-10-11T03:07:36.440Z,1.65
2022-10-11T03:10:04.996Z,2.00
2022-10-11T03:12:33.241Z,1.83
2022-10-11T03:15:01.322Z,2.00
2022-10-11T03:17:36.551Z,1.70
2022-10-11T03:20:07.816Z,1.60
2022-10-11T03:22:35.843Z,1.58
2022-10-11T03:25:04.907Z,1.67
2022-10-11T03:27:33.800Z,1.80
2022-10-11T03:30:02.055Z,1.88
2022-10-11T03:32:30.442Z,1.67
2022-10-11T03:34:58.640Z,1.70
2022-10-11T03:37:28.147Z,1.80
2022-10-11T03:39:56.191Z,2.03
2022-10-11T03:42:24.204Z,1.52
2022-10-11T03:44:52.172Z,1.70
2022-10-11T03:47:20.508Z,1.65
2022-10-11T03:49:48.502Z,1.50
2022-10-11T03:52:16.550Z,1.50
2022-10-11T03:54:46.002Z,1.45
2022-10-11T03:57:14.024Z,1.63
2022-10-11T03:59:41.965Z,1.58
2022-10-11T04:02:10.080Z,1.60
2022-10-11T04:04:38.645Z,1.65
2022-10-11T04:07:06.839Z,1.80
2022-10-11T04:09:35.135Z,2.03
2022-10-11T04:12:05.154Z,2.03
2022-10-11T04:14:33.124Z,1.60
2022-10-11T04:17:01.087Z,1.90
2022-10-11T04:19:29.846Z,1.50
2022-10-11T04:21:57.816Z,1.85
2022-10-11T04:24:25.795Z,1.88
2022-10-11T04:26:53.737Z,1.70
2022-10-11T04:29:23.146Z,2.17
2022-10-11T04:31:51.248Z,1.50
2022-10-11T04:34:19.589Z,1.48
2022-10-11T04:36:50.066Z,1.75
2022-10-11T04:39:18.502Z,1.67
2022-10-11T04:41:46.451Z,1.83
2022-10-11T04:44:14.479Z,1.70
2022-10-11T04:46:43.842Z,1.42
2022-10-11T04:49:11.767Z,1.73
2022-10-11T04:51:40.113Z,1.90
2022-10-11T04:54:08.070Z,1.38
2022-10-11T04:56:36.045Z,1.60
2022-10-11T04:59:04.079Z,1.63
2022-10-11T05:01:32.024Z,1.58
2022-10-11T05:04:01.394Z,1.30
2022-10-11T05:06:29.421Z,1.55
2022-10-11T05:08:57.453Z,1.40
2022-10-11T05:11:25.529Z,1.45
2022-10-11T05:13:53.537Z,1.52
2022-10-11T05:16:21.498Z,1.60
2022-10-11T05:18:49.544Z,1.30
2022-10-11T05:21:21.364Z,2.15
2022-10-11T05:23:51.117Z,1.40
2022-10-11T05:26:19.272Z,1.52
2022-10-11T05:28:48.077Z,1.48
2022-10-11T05:31:16.574Z,1.48
2022-10-11T05:33:44.882Z,1.42
2022-10-11T05:36:13.521Z,1.70
2022-10-11T05:38:43.014Z,1.88
2022-10-11T05:41:14.860Z,1.75
2022-10-11T05:43:44.558Z,1.73
2022-10-11T05:46:15.820Z,1.65
2022-10-11T05:48:44.099Z,1.58
2022-10-11T05:51:13.042Z,1.67
2022-10-11T05:53:42.591Z,1.40
2022-10-11T05:56:20.537Z,1.23
2022-10-11T05:58:48.802Z,1.38
2022-10-11T06:01:22.038Z,1.63
2022-10-11T06:03:50.453Z,1.52
2022-10-11T06:06:18.904Z,1.60
2022-10-11T06:08:48.918Z,1.30
2022-10-11T06:11:18.839Z,2.00
2022-10-11T06:13:46.893Z,1.63
2022-10-11T06:16:14.828Z,1.60
2022-10-11T06:18:42.862Z,1.58
2022-10-11T06:21:10.978Z,1.83
2022-10-11T06:23:38.971Z,1.40
2022-10-11T06:26:09.981Z,1.33
2022-10-11T06:28:38.867Z,1.58
2022-10-11T06:31:07.804Z,1.42
2022-10-11T06:33:36.218Z,1.50
2022-10-11T06:36:07.645Z,1.42
2022-10-11T06:38:37.281Z,1.85
2022-10-11T06:41:18.010Z,2.30
2022-10-11T06:43:46.787Z,1.80
2022-10-11T06:46:14.736Z,2.00
2022-10-11T06:48:44.542Z,2.15
2022-10-11T06:51:13.168Z,2.50
2022-10-11T06:53:41.260Z,1.80
2022-10-11T06:56:11.895Z,2.03
2022-10-11T06:58:41.809Z,1.70
2022-10-11T07:01:12.952Z,1.75
2022-10-11T07:03:40.990Z,1.55
2022-10-11T07:06:11.236Z,1.50
2022-10-11T07:08:40.523Z,1.67
2022-10-11T07:11:10.255Z,1.80
2022-10-11T07:13:38.871Z,1.85
2022-10-11T07:16:11.081Z,1.95
2022-10-11T07:18:39.142Z,3.08
2022-10-11T07:21:08.805Z,2.67
2022-10-11T07:23:36.754Z,2.30
2022-10-11T07:26:05.639Z,2.17
2022-10-11T07:28:35.014Z,2.38
2022-10-11T07:31:06.216Z,1.95
2022-10-11T07:33:35.811Z,2.30
2022-10-11T07:36:05.721Z,2.50
2022-10-11T07:38:34.341Z,1.90
2022-10-11T07:41:06.866Z,2.20
2022-10-11T07:43:34.837Z,2.10
2022-10-11T07:46:04.586Z,2.00
2022-10-11T07:48:34.233Z,2.33
2022-10-11T07:51:08.893Z,1.98
2022-10-11T07:53:41.318Z,1.77
2022-10-11T07:56:10.507Z,2.00
2022-10-11T07:58:38.471Z,2.20
2022-10-11T08:01:07.048Z,2.60
2022-10-11T08:03:35.163Z,2.33
2022-10-11T08:06:04.422Z,2.42
2022-10-11T08:08:33.991Z,2.28
2022-10-11T08:11:02.118Z,2.60
2022-10-11T08:13:30.087Z,2.47
2022-10-11T08:15:58.190Z,2.17
2022-10-11T08:18:26.518Z,2.20
2022-10-11T08:20:54.525Z,2.28
2022-10-11T08:23:22.490Z,2.03
2022-10-11T08:25:58.059Z,2.25
2022-10-11T08:28:26.068Z,2.42
2022-10-11T08:30:55.744Z,2.63
2022-10-11T08:33:24.928Z,2.30
2022-10-11T08:35:54.147Z,2.42
2022-10-11T08:38:22.610Z,2.40
2022-10-11T08:40:55.244Z,2.20
2022-10-11T08:43:34.047Z,1.90
2022-10-11T08:46:04.258Z,2.50
2022-10-11T08:48:36.864Z,2.10
2022-10-11T08:51:14.753Z,2.33
2022-10-11T08:53:48.982Z,1.92
2022-10-11T08:56:19.447Z,2.60
2022-10-11T08:58:53.715Z,2.35
2022-10-11T09:01:24.589Z,2.60
2022-10-11T09:03:53.709Z,2.22
2022-10-11T09:06:33.380Z,2.30
2022-10-11T09:09:19.535Z,2.20
2022-10-11T09:12:01.490Z,2.50
2022-10-11T09:14:53.274Z,2.30
2022-10-11T09:17:34.850Z,2.28
2022-10-11T09:20:28.435Z,2.35
2022-10-11T09:23:03.903Z,1.95
2022-10-11T09:25:35.872Z,2.05
2022-10-11T09:28:18.830Z,2.58
2022-10-11T09:30:51.764Z,2.63
2022-10-11T09:33:22.085Z,2.95
2022-10-11T09:35:52.304Z,3.05
2022-10-11T09:38:29.083Z,3.55
2022-10-11T09:41:07.132Z,3.30
2022-10-11T09:43:36.690Z,3.65
2022-10-11T09:46:05.341Z,3.50
2022-10-11T09:48:40.476Z,2.50
2022-10-11T09:51:16.276Z,2.75
2022-10-11T09:53:53.450Z,3.05
2022-10-11T09:56:22.596Z,2.65
2022-10-11T09:59:08.274Z,3.28
2022-10-11T10:01:36.757Z,2.50
2022-10-11T10:04:08.074Z,3.00
2022-10-11T10:06:36.758Z,2.75
2022-10-11T10:09:27.079Z,2.97
2022-10-11T10:11:55.889Z,2.83
2022-10-11T10:14:28.220Z,2.58
2022-10-11T10:17:02.845Z,3.55
2022-10-11T10:19:35.773Z,3.78
2022-10-11T10:22:03.770Z,3.40
2022-10-11T10:24:39.260Z,3.55
2022-10-11T10:27:20.906Z,3.20
2022-10-11T10:30:14.412Z,3.90
2022-10-11T10:32:50.033Z,4.03
2022-10-11T10:35:28.425Z,4.35
2022-10-11T10:38:06.523Z,3.83
2022-10-11T10:40:40.684Z,4.57
2022-10-11T10:43:15.773Z,4.63
2022-10-11T10:46:17.945Z,4.57
2022-10-11T10:49:28.789Z,4.60
2022-10-11T10:52:03.167Z,5.80
2022-10-11T10:54:41.893Z,5.45
2022-10-11T10:57:18.411Z,4.68
2022-10-11T10:59:56.156Z,4.72
2022-10-11T11:02:41.031Z,4.88
2022-10-11T11:05:21.128Z,4.65
2022-10-11T11:07:54.513Z,5.68
2022-10-11T11:10:25.701Z,5.15
2022-10-11T11:13:08.614Z,5.18
2022-10-11T11:15:42.078Z,5.00
2022-10-11T11:18:28.612Z,4.72
2022-10-11T11:21:11.428Z,5.35
2022-10-11T11:23:47.587Z,4.97
2022-10-11T11:26:24.664Z,4.90
2022-10-11T11:29:04.610Z,5.18
2022-10-11T11:31:46.204Z,5.00
2022-10-11T11:34:23.232Z,4.93
2022-10-11T11:36:56.689Z,4.95
2022-10-11T11:39:27.117Z,4.93
2022-10-11T11:42:00.416Z,4.53
2022-10-11T11:44:32.970Z,5.18
2022-10-11T11:47:04.357Z,4.57
2022-10-11T11:49:39.301Z,4.63
2022-10-11T11:52:12.911Z,5.00
2022-10-11T11:54:52.153Z,4.10
2022-10-11T11:57:30.810Z,3.90
2022-10-11T12:00:05.361Z,4.28
2022-10-11T12:02:45.833Z,4.30
2022-10-11T12:05:18.203Z,4.45
2022-10-11T12:08:06.028Z,3.90
2022-10-11T12:10:39.966Z,4.30
2022-10-11T12:13:20.771Z,4.32
2022-10-11T12:16:10.982Z,3.63
2022-10-11T12:18:50.950Z,2.40
2022-10-11T12:21:27.465Z,3.38
2022-10-11T12:23:56.680Z,2.50
2022-10-11T12:26:43.472Z,2.63
2022-10-11T12:29:45.065Z,2.47
2022-10-11T12:32:49.495Z,2.30
2022-10-11T12:36:08.247Z,2.03
2022-10-11T12:38:40.231Z,1.90
2022-10-11T12:41:50.462Z,2.17
2022-10-11T12:44:23.865Z,1.80
2022-10-11T12:47:29.755Z,1.70
2022-10-11T12:50:13.088Z,1.73
2022-10-11T12:52:51.487Z,1.90
2022-10-11T12:55:43.292Z,1.92
2022-10-11T12:58:38.538Z,2.17
2022-10-11T13:01:22.052Z,1.95
2022-10-11T13:03:58.604Z,1.98
2022-10-11T13:06:30.186Z,1.95
2022-10-11T13:09:04.737Z,1.95
2022-10-11T13:11:36.814Z,2.30
2022-10-11T13:14:11.105Z,1.92
2022-10-11T13:17:05.412Z,2.63
2022-10-11T13:19:35.035Z,1.88
2022-10-11T13:22:06.559Z,1.73
2022-10-11T13:24:41.004Z,1.77
2022-10-11T13:27:19.779Z,1.77
2022-10-11T13:29:49.617Z,1.73
2022-10-11T13:32:23.774Z,1.40
2022-10-11T13:37:30.990Z,1.70
2022-10-11T13:39:59.833Z,1.90
2022-10-11T13:42:32.740Z,1.63
2022-10-11T13:45:01.616Z,1.80
2022-10-11T13:47:32.694Z,1.95
2022-10-11T13:50:12.013Z,1.58
2022-10-11T13:52:55.083Z,1.50
2022-10-11T13:55:33.640Z,1.65
2022-10-11T13:58:09.696Z,1.45
2022-10-11T14:00:39.270Z,1.80
2022-10-11T14:03:18.555Z,1.70
2022-10-11T14:05:54.898Z,1.92
2022-10-11T14:08:26.335Z,1.75
2022-10-11T14:10:57.885Z,2.13
2022-10-11T14:13:32.228Z,1.88
2022-10-11T14:16:02.154Z,1.98
2022-10-11T14:18:39.641Z,1.65
2022-10-11T14:21:31.656Z,1.80
2022-10-11T14:24:01.314Z,1.65
2022-10-11T14:26:34.892Z,1.77
2022-10-11T14:29:08.838Z,1.90
2022-10-11T14:31:41.768Z,1.67
2022-10-11T14:34:18.769Z,1.75
2022-10-11T14:36:47.059Z,1.67
2022-10-11T14:39:17.921Z,2.40
2022-10-11T14:41:46.546Z,2.22
2022-10-11T14:44:16.753Z,2.20
2022-10-11T14:46:45.972Z,2.47
2022-10-11T14:49:15.819Z,2.05
2022-10-11T14:51:45.346Z,2.13
2022-10-11T14:54:14.667Z,2.25
2022-10-11T14:56:42.911Z,2.80
2022-10-11T14:59:12.399Z,2.35
2022-10-11T15:01:42.397Z,2.50
2022-10-11T15:04:10.579Z,2.50
2022-10-11T15:06:40.964Z,2.30
2022-10-11T15:09:09.648Z,2.35
2022-10-11T15:11:38.154Z,2.83
2022-10-11T15:14:06.691Z,2.63
2022-10-11T15:16:35.387Z,2.42
2022-10-11T15:19:04.873Z,2.05
2022-10-11T15:21:33.348Z,2.60
2022-10-11T15:24:01.297Z,2.53
2022-10-11T15:26:30.568Z,2.60
2022-10-11T15:28:59.111Z,2.35
2022-10-11T15:31:27.229Z,2.67
2022-10-11T15:33:59.446Z,2.53
2022-10-11T15:36:29.629Z,2.30
2022-10-11T15:38:57.941Z,2.30
2022-10-11T15:41:26.010Z,2.22
2022-10-11T15:43:53.985Z,2.45
2022-10-11T15:46:23.484Z,2.63
2022-10-11T15:48:52.701Z,2.25
2022-10-11T15:51:20.851Z,2.22
2022-10-11T15:53:50.160Z,2.40
2022-10-11T15:56:19.852Z,2.63
2022-10-11T15:58:48.252Z,2.58
2022-10-11T16:01:19.183Z,2.45
2022-10-11T16:03:48.416Z,2.33
2022-10-11T16:06:17.196Z,2.47
2022-10-11T16:08:45.592Z,2.92
2022-10-11T16:11:15.294Z,2.30
2022-10-11T16:13:43.329Z,2.60
2022-10-11T16:16:12.749Z,2.88
2022-10-11T16:18:41.169Z,3.05
2022-10-11T16:21:11.219Z,3.03
2022-10-11T16:23:39.800Z,2.70
2022-10-11T16:26:10.446Z,2.65
2022-10-11T16:28:40.292Z,2.80
2022-10-11T16:31:09.429Z,2.90
2022-10-11T16:33:45.728Z,2.50
2022-10-11T16:36:36.064Z,2.67
2022-10-11T16:39:08.865Z,2.75
2022-10-11T16:41:37.099Z,2.95
2022-10-11T16:44:06.951Z,2.53
2022-10-11T16:46:35.780Z,2.53
2022-10-11T16:49:04.461Z,2.90
2022-10-11T16:51:32.485Z,2.75
2022-10-11T16:54:00.598Z,2.60
2022-10-11T16:56:28.590Z,3.13
2022-10-11T16:58:57.057Z,2.58
2022-10-11T17:01:26.864Z,2.97
2022-10-11T17:03:55.821Z,2.60
2022-10-11T17:06:25.405Z,3.13
2022-10-11T17:08:53.827Z,2.83
2022-10-11T17:11:22.644Z,3.50
2022-10-11T17:13:53.462Z,3.38
2022-10-11T17:16:22.554Z,3.55
2022-10-11T17:18:52.279Z,3.65
2022-10-11T17:21:22.124Z,3.10
2022-10-11T17:23:50.533Z,3.15
2022-10-11T17:26:21.133Z,2.78
2022-10-11T17:28:49.194Z,3.15
2022-10-11T17:31:18.100Z,3.38
2022-10-11T17:33:46.084Z,3.20
2022-10-11T17:36:18.514Z,3.38
2022-10-11T17:38:46.583Z,3.17
2022-10-11T17:41:14.631Z,3.38
2022-10-11T17:43:42.644Z,4.00
2022-10-11T17:46:13.800Z,3.65
2022-10-11T17:48:42.381Z,3.72
2022-10-11T17:51:12.300Z,4.15
2022-10-11T17:53:42.140Z,3.95
2022-10-11T17:56:12.065Z,4.05
2022-10-11T17:58:40.255Z,4.28
2022-10-11T18:01:11.958Z,3.90
2022-10-11T18:03:40.426Z,3.70
2022-10-11T18:06:10.443Z,3.92
2022-10-11T18:08:41.207Z,3.47
2022-10-11T18:11:14.003Z,4.07
2022-10-11T18:13:45.981Z,4.55
2022-10-11T18:16:15.024Z,4.55
2022-10-11T18:18:43.609Z,4.28
2022-10-11T18:21:12.556Z,4.13
2022-10-11T18:23:41.010Z,4.65
2022-10-11T18:26:16.367Z,4.40
2022-10-11T18:28:44.954Z,3.83
2022-10-11T18:31:15.806Z,4.00
2022-10-11T18:33:46.059Z,4.40
2022-10-11T18:36:15.603Z,4.32
2022-10-11T18:38:46.663Z,3.78
2022-10-11T18:41:18.831Z,3.90
2022-10-11T18:43:50.462Z,4.35
2022-10-11T18:46:18.649Z,4.10
2022-10-11T18:48:48.747Z,4.57
2022-10-11T18:51:19.423Z,3.80
2022-10-11T18:53:48.287Z,3.92
2022-10-11T18:56:20.949Z,4.32
2022-10-11T18:58:50.788Z,3.63
2022-10-11T19:01:21.263Z,3.80
2022-10-11T19:03:52.772Z,3.50
2022-10-11T19:06:23.395Z,3.22
2022-10-11T19:08:53.505Z,3.53
2022-10-11T19:11:25.337Z,3.70
2022-10-11T19:13:56.936Z,4.18
2022-10-11T19:16:25.759Z,3.67
2022-10-11T19:18:54.570Z,3.58
2022-10-11T19:21:23.332Z,3.80
2022-10-11T19:23:51.425Z,4.70
2022-10-11T19:26:21.184Z,4.10
2022-10-11T19:28:56.487Z,3.80
2022-10-11T19:31:25.010Z,4.07
2022-10-11T19:33:53.352Z,3.75
2022-10-11T19:36:21.500Z,3.47
2022-10-11T19:38:51.510Z,4.18
2022-10-11T19:41:20.976Z,4.60
2022-10-11T19:43:51.412Z,3.97
2022-10-11T19:46:44.396Z,4.10
2022-10-11T19:49:10.271Z,4.30
2022-10-11T19:51:38.305Z,3.47
2022-10-11T19:54:09.059Z,3.42
2022-10-11T19:56:37.664Z,3.78
2022-10-11T19:59:07.485Z,3.78
2022-10-11T20:01:37.363Z,3.95
2022-10-11T20:04:07.508Z,3.60
2022-10-11T20:06:38.751Z,4.43
2022-10-11T20:09:28.511Z,3.75
2022-10-11T20:11:55.668Z,3.80
2022-10-11T20:14:25.423Z,3.35
2022-10-11T20:16:53.374Z,3.47
2022-10-11T20:19:27.760Z,4.03
2022-10-11T20:21:57.390Z,3.45
2022-10-11T20:24:27.499Z,3.05
2022-10-11T20:26:55.609Z,3.55
2022-10-11T20:29:26.411Z,4.47
2022-10-11T20:31:56.285Z,4.25
2022-10-11T20:34:24.333Z,4.22
2022-10-11T20:36:52.278Z,4.40
2022-10-11T20:39:20.428Z,4.13
2022-10-11T20:41:48.518Z,3.97
2022-10-11T20:44:17.936Z,4.18
2022-10-11T20:46:47.310Z,4.03
2022-10-11T20:49:15.389Z,4.07
2022-10-11T20:51:43.875Z,3.20
2022-10-11T20:54:12.487Z,4.00
2022-10-11T20:56:41.768Z,4.80
2022-10-11T20:59:10.149Z,4.03
2022-10-11T21:01:40.471Z,4.20
2022-10-11T21:04:15.583Z,4.28
2022-10-11T21:06:43.617Z,4.20
2022-10-11T21:09:14.073Z,3.70
2022-10-11T21:11:44.540Z,3.72
2022-10-11T21:14:12.607Z,4.22
2022-10-11T21:16:40.655Z,4.35
2022-10-11T21:19:15.782Z,4.65
2022-10-11T21:21:46.405Z,4.20
2022-10-11T21:24:16.427Z,4.22
2022-10-11T21:26:44.405Z,3.55
2022-10-11T21:29:12.385Z,4.38
2022-10-11T21:31:40.872Z,3.47
2022-10-11T21:34:10.251Z,4.43
2022-10-11T21:36:38.189Z,4.10
2022-10-11T21:39:06.192Z,4.10
2022-10-11T21:41:34.193Z,4.22
2022-10-11T21:44:02.181Z,4.60
2022-10-11T21:49:21.428Z,4.88
2022-10-11T21:51:49.477Z,4.22
2022-10-11T21:54:17.793Z,4.97
2022-10-11T21:56:45.947Z,4.90
2022-10-11T21:59:14.074Z,4.90
2022-10-11T22:01:42.525Z,4.25
2022-10-11T22:04:10.990Z,5.22
2022-10-11T22:06:40.712Z,4.22
2022-10-11T22:09:09.547Z,4.28
2022-10-11T22:11:38.015Z,4.28
2022-10-11T22:14:06.165Z,3.75
2022-10-11T22:16:35.528Z,4.13
2022-10-11T22:19:03.571Z,4.05
2022-10-11T22:21:31.630Z,4.55
2022-10-11T22:24:01.165Z,4.10
2022-10-11T22:26:31.134Z,4.20
2022-10-11T22:29:00.481Z,5.22
2022-10-11T22:31:29.860Z,3.78
2022-10-11T22:33:59.198Z,4.80
2022-10-11T22:36:27.967Z,5.20
2022-10-11T22:38:55.935Z,4.40
2022-10-11T22:41:25.280Z,4.05
2022-10-11T22:43:53.360Z,4.03
2022-10-11T22:46:21.373Z,3.95
2022-10-11T22:48:49.319Z,3.35
2022-10-11T22:51:17.361Z,3.50
2022-10-11T22:53:45.417Z,3.92
2022-10-11T22:56:13.545Z,4.25
2022-10-11T22:58:42.989Z,3.97
2022-10-11T23:01:12.826Z,4.03
2022-10-11T23:03:41.003Z,3.70
2022-10-11T23:06:09.722Z,4.03
2022-10-11T23:08:37.734Z,3.53
2022-10-11T23:11:06.738Z,4.05
2022-10-11T23:13:35.066Z,3.78
2022-10-11T23:16:08.143Z,3.95
2022-10-11T23:18:36.372Z,4.20
2022-10-11T23:21:05.835Z,4.22
2022-10-11T23:23:34.501Z,3.90
2022-10-11T23:26:07.531Z,4.10
2022-10-11T23:28:36.122Z,4.22
2022-10-11T23:31:09.760Z,4.22
2022-10-11T23:33:37.837Z,4.00
2022-10-11T23:36:06.852Z,4.80
2022-10-11T23:38:34.797Z,3.85
2022-10-11T23:41:02.717Z,3.97
2022-10-11T23:43:30.704Z,4.40
2022-10-11T23:45:58.708Z,4.38
2022-10-11T23:48:28.471Z,4.00
2022-10-11T23:50:56.416Z,5.13
2022-10-11T23:53:24.381Z,4.35
2022-10-11T23:55:52.362Z,4.10
2022-10-11T23:58:20.492Z,4.18
